sensor_id;sensor_type;location;lat;lon;timestamp;pressure;altitude;pressure_sealevel;temperature;humidity
40954;BME280;26686;50.130;8.710;2023-03-04T00:04:47;100919.72;;;4.18;61.59
40954;BME280;26686;50.130;8.710;2023-03-04T00:09:48;100920.72;;;4.15;61.47
40954;BME280;26686;50.130;8.710;2023-03-04T00:14:50;100921.19;;;4.04;62.06
40954;BME280;26686;50.130;8.710;2023-03-04T00:19:51;100915.78;;;4.07;61.26
40954;BME280;26686;50.130;8.710;2023-03-04T00:24:52;100923.75;;;4.06;62.03
40954;BME280;26686;50.130;8.710;2023-03-04T00:29:54;100927.41;;;4.02;62.42
40954;BME280;26686;50.130;8.710;2023-03-04T00:34:56;100920.47;;;4.01;61.56
40954;BME280;26686;50.130;8.710;2023-03-04T00:39:58;100927.97;;;4.10;60.94
40954;BME280;26686;50.130;8.710;2023-03-04T00:44:59;100929.16;;;4.03;61.93
40954;BME280;26686;50.130;8.710;2023-03-04T00:50:01;100920.47;;;4.01;62.05
40954;BME280;26686;50.130;8.710;2023-03-04T00:55:03;100917.16;;;3.96;62.23
40954;BME280;26686;50.130;8.710;2023-03-04T01:00:05;100912.66;;;3.98;62.13
40954;BME280;26686;50.130;8.710;2023-03-04T01:05:07;100913.41;;;4.01;62.34
40954;BME280;26686;50.130;8.710;2023-03-04T01:10:10;100909.66;;;4.07;62.16
40954;BME280;26686;50.130;8.710;2023-03-04T01:15:13;100912.94;;;4.12;61.85
40954;BME280;26686;50.130;8.710;2023-03-04T01:20:14;100907.25;;;4.21;61.07
40954;BME280;26686;50.130;8.710;2023-03-04T01:25:16;100900.88;;;4.27;61.25
40954;BME280;26686;50.130;8.710;2023-03-04T01:30:17;100883.19;;;4.29;60.84
40954;BME280;26686;50.130;8.710;2023-03-04T01:35:18;100882.63;;;4.22;61.02
40954;BME280;26686;50.130;8.710;2023-03-04T01:40:20;100885.19;;;4.24;61.08
40954;BME280;26686;50.130;8.710;2023-03-04T01:45:22;100874.38;;;4.30;61.09
40954;BME280;26686;50.130;8.710;2023-03-04T01:50:32;100855.50;;;4.39;60.61
40954;BME280;26686;50.130;8.710;2023-03-04T01:55:35;100843.84;;;4.45;59.86
40954;BME280;26686;50.130;8.710;2023-03-04T02:00:37;100857.03;;;4.45;60.05
40954;BME280;26686;50.130;8.710;2023-03-04T02:05:43;100845.06;;;4.17;60.32
40954;BME280;26686;50.130;8.710;2023-03-04T02:10:46;100849.28;;;4.21;61.04
40954;BME280;26686;50.130;8.710;2023-03-04T02:15:48;100838.75;;;4.21;60.65
40954;BME280;26686;50.130;8.710;2023-03-04T02:21:08;100840.91;;;4.32;60.30
40954;BME280;26686;50.130;8.710;2023-03-04T02:26:18;100837.41;;;4.32;60.12
40954;BME280;26686;50.130;8.710;2023-03-04T02:36:31;100835.47;;;4.35;59.95
40954;BME280;26686;50.130;8.710;2023-03-04T02:41:33;100832.81;;;4.37;59.68
40954;BME280;26686;50.130;8.710;2023-03-04T02:46:35;100821.53;;;4.33;59.81
40954;BME280;26686;50.130;8.710;2023-03-04T02:51:37;100826.09;;;4.30;59.91
40954;BME280;26686;50.130;8.710;2023-03-04T02:56:44;100822.50;;;4.31;60.16
40954;BME280;26686;50.130;8.710;2023-03-04T03:01:45;100826.09;;;4.30;59.99
40954;BME280;26686;50.130;8.710;2023-03-04T03:06:47;100816.53;;;4.27;59.87
40954;BME280;26686;50.130;8.710;2023-03-04T03:11:49;100813.06;;;4.27;60.00
40954;BME280;26686;50.130;8.710;2023-03-04T03:16:50;100804.34;;;4.24;59.92
40954;BME280;26686;50.130;8.710;2023-03-04T03:21:51;100793.03;;;4.22;59.89
40954;BME280;26686;50.130;8.710;2023-03-04T03:26:53;100822.31;;;4.16;60.31
40954;BME280;26686;50.130;8.710;2023-03-04T03:31:54;100794.22;;;4.15;60.38
40954;BME280;26686;50.130;8.710;2023-03-04T03:36:57;100812.41;;;4.40;60.17
40954;BME280;26686;50.130;8.710;2023-03-04T03:41:58;100756.13;;;4.22;59.69
40954;BME280;26686;50.130;8.710;2023-03-04T03:47:00;100809.66;;;4.63;59.46
40954;BME280;26686;50.130;8.710;2023-03-04T03:52:01;100789.69;;;4.57;59.32
40954;BME280;26686;50.130;8.710;2023-03-04T03:57:03;100808.34;;;4.71;59.42
40954;BME280;26686;50.130;8.710;2023-03-04T04:02:04;100804.50;;;4.78;59.35
40954;BME280;26686;50.130;8.710;2023-03-04T04:07:06;100799.31;;;4.58;59.67
40954;BME280;26686;50.130;8.710;2023-03-04T04:12:07;100786.22;;;4.56;60.09
40954;BME280;26686;50.130;8.710;2023-03-04T04:17:09;100804.50;;;4.78;59.69
40954;BME280;26686;50.130;8.710;2023-03-04T04:22:14;100774.56;;;4.60;60.02
40954;BME280;26686;50.130;8.710;2023-03-04T04:27:16;100811.56;;;4.78;59.58
40954;BME280;26686;50.130;8.710;2023-03-04T04:32:17;100779.47;;;4.68;59.56
40954;BME280;26686;50.130;8.710;2023-03-04T04:37:19;100779.91;;;4.78;59.46
40954;BME280;26686;50.130;8.710;2023-03-04T04:42:21;100790.75;;;4.72;59.50
40954;BME280;26686;50.130;8.710;2023-03-04T04:47:22;100760.25;;;4.66;59.45
40954;BME280;26686;50.130;8.710;2023-03-04T04:52:24;100794.28;;;4.90;59.97
40954;BME280;26686;50.130;8.710;2023-03-04T04:57:25;100776.22;;;4.82;59.58
40954;BME280;26686;50.130;8.710;2023-03-04T05:02:26;100755.25;;;4.79;59.93
40954;BME280;26686;50.130;8.710;2023-03-04T05:07:28;100786.00;;;4.98;59.80
40954;BME280;26686;50.130;8.710;2023-03-04T05:12:29;100740.50;;;4.75;59.66
40954;BME280;26686;50.130;8.710;2023-03-04T05:17:30;100777.88;;;5.02;59.68
40954;BME280;26686;50.130;8.710;2023-03-04T05:22:32;100759.09;;;4.91;59.41
40954;BME280;26686;50.130;8.710;2023-03-04T05:27:34;100786.06;;;5.15;59.15
40954;BME280;26686;50.130;8.710;2023-03-04T05:32:37;100785.09;;;5.16;59.32
40954;BME280;26686;50.130;8.710;2023-03-04T05:37:39;100757.91;;;4.96;59.16
40954;BME280;26686;50.130;8.710;2023-03-04T05:42:41;100785.59;;;5.24;58.93
40954;BME280;26686;50.130;8.710;2023-03-04T05:47:42;100776.19;;;5.19;58.69
40954;BME280;26686;50.130;8.710;2023-03-04T05:52:43;100762.59;;;5.09;58.96
40954;BME280;26686;50.130;8.710;2023-03-04T05:57:45;100780.13;;;5.10;59.21
40954;BME280;26686;50.130;8.710;2023-03-04T06:02:47;100798.63;;;5.27;58.87
40954;BME280;26686;50.130;8.710;2023-03-04T06:07:48;100798.72;;;5.26;58.89
40954;BME280;26686;50.130;8.710;2023-03-04T06:12:52;100788.69;;;5.15;59.17
40954;BME280;26686;50.130;8.710;2023-03-04T06:17:53;100803.75;;;5.30;58.40
40954;BME280;26686;50.130;8.710;2023-03-04T06:22:55;100775.94;;;5.23;58.47
40954;BME280;26686;50.130;8.710;2023-03-04T06:27:56;100815.72;;;5.38;58.15
40954;BME280;26686;50.130;8.710;2023-03-04T06:32:58;100824.59;;;5.18;58.85
40954;BME280;26686;50.130;8.710;2023-03-04T06:37:59;100834.44;;;5.33;58.60
40954;BME280;26686;50.130;8.710;2023-03-04T06:43:00;100831.22;;;5.26;58.43
40954;BME280;26686;50.130;8.710;2023-03-04T06:48:02;100826.31;;;5.19;58.33
40954;BME280;26686;50.130;8.710;2023-03-04T06:53:03;100832.44;;;5.19;57.77
40954;BME280;26686;50.130;8.710;2023-03-04T06:58:05;100838.63;;;5.01;58.89
40954;BME280;26686;50.130;8.710;2023-03-04T07:03:08;100833.25;;;5.21;58.32
40954;BME280;26686;50.130;8.710;2023-03-04T07:08:11;100841.97;;;5.41;58.03
40954;BME280;26686;50.130;8.710;2023-03-04T07:13:13;100829.09;;;5.35;56.86
40954;BME280;26686;50.130;8.710;2023-03-04T07:18:15;100841.56;;;5.31;57.81
40954;BME280;26686;50.130;8.710;2023-03-04T07:23:16;100851.91;;;5.53;57.21
40954;BME280;26686;50.130;8.710;2023-03-04T07:28:18;100861.41;;;5.57;57.12
40954;BME280;26686;50.130;8.710;2023-03-04T07:33:19;100846.78;;;5.50;57.28
40954;BME280;26686;50.130;8.710;2023-03-04T07:38:21;100846.31;;;5.42;56.72
40954;BME280;26686;50.130;8.710;2023-03-04T07:43:22;100874.75;;;5.54;57.25
40954;BME280;26686;50.130;8.710;2023-03-04T07:48:23;100878.13;;;5.75;56.48
40954;BME280;26686;50.130;8.710;2023-03-04T07:53:25;100865.13;;;5.53;57.56
40954;BME280;26686;50.130;8.710;2023-03-04T07:58:26;100867.00;;;5.69;57.07
40954;BME280;26686;50.130;8.710;2023-03-04T08:03:28;100852.94;;;5.68;56.57
40954;BME280;26686;50.130;8.710;2023-03-04T08:08:29;100854.34;;;5.75;56.64
40954;BME280;26686;50.130;8.710;2023-03-04T08:13:32;100868.72;;;5.87;56.83
40954;BME280;26686;50.130;8.710;2023-03-04T08:18:33;100882.25;;;5.98;56.42
40954;BME280;26686;50.130;8.710;2023-03-04T08:23:35;100881.63;;;6.11;56.07
40954;BME280;26686;50.130;8.710;2023-03-04T08:28:37;100876.97;;;6.16;56.05
40954;BME280;26686;50.130;8.710;2023-03-04T08:33:38;100888.22;;;6.19;55.85
40954;BME280;26686;50.130;8.710;2023-03-04T08:38:40;100887.22;;;6.22;55.66
40954;BME280;26686;50.130;8.710;2023-03-04T08:43:42;100894.31;;;6.22;55.54
40954;BME280;26686;50.130;8.710;2023-03-04T08:48:44;100897.19;;;5.99;55.78
40954;BME280;26686;50.130;8.710;2023-03-04T08:53:45;100894.22;;;6.06;55.92
40954;BME280;26686;50.130;8.710;2023-03-04T08:58:47;100884.50;;;6.24;55.36
40954;BME280;26686;50.130;8.710;2023-03-04T09:03:48;100891.00;;;6.34;55.06
40954;BME280;26686;50.130;8.710;2023-03-04T09:08:50;100881.34;;;6.33;55.05
40954;BME280;26686;50.130;8.710;2023-03-04T09:13:51;100881.56;;;6.46;54.42
40954;BME280;26686;50.130;8.710;2023-03-04T09:18:53;100887.13;;;6.41;54.82
40954;BME280;26686;50.130;8.710;2023-03-04T09:23:55;100857.72;;;6.30;54.71
40954;BME280;26686;50.130;8.710;2023-03-04T09:28:59;100882.00;;;6.54;54.29
40954;BME280;26686;50.130;8.710;2023-03-04T09:34:01;100885.75;;;6.50;54.22
40954;BME280;26686;50.130;8.710;2023-03-04T09:39:03;100884.31;;;6.60;54.10
40954;BME280;26686;50.130;8.710;2023-03-04T09:44:22;100886.75;;;6.81;54.16
40954;BME280;26686;50.130;8.710;2023-03-04T09:49:25;100881.47;;;6.81;53.42
40954;BME280;26686;50.130;8.710;2023-03-04T09:54:40;100884.28;;;6.94;53.45
40954;BME280;26686;50.130;8.710;2023-03-04T10:00:09;100872.75;;;6.79;53.33
40954;BME280;26686;50.130;8.710;2023-03-04T10:05:17;100868.25;;;6.97;52.88
40954;BME280;26686;50.130;8.710;2023-03-04T10:10:31;100885.13;;;6.62;53.75
40954;BME280;26686;50.130;8.710;2023-03-04T10:15:39;100867.09;;;7.01;53.90
40954;BME280;26686;50.130;8.710;2023-03-04T10:20:53;100856.88;;;7.11;52.63
40954;BME280;26686;50.130;8.710;2023-03-04T10:25:58;100877.22;;;7.10;52.58
40954;BME280;26686;50.130;8.710;2023-03-04T10:31:20;100864.13;;;7.23;52.49
40954;BME280;26686;50.130;8.710;2023-03-04T10:41:31;100855.25;;;7.24;51.70
40954;BME280;26686;50.130;8.710;2023-03-04T10:46:46;100850.47;;;6.99;52.00
40954;BME280;26686;50.130;8.710;2023-03-04T10:52:01;100850.28;;;7.02;52.49
40954;BME280;26686;50.130;8.710;2023-03-04T10:57:10;100807.28;;;6.98;52.09
40954;BME280;26686;50.130;8.710;2023-03-04T11:02:27;100831.97;;;7.29;51.55
40954;BME280;26686;50.130;8.710;2023-03-04T11:07:29;100832.31;;;7.39;51.49
40954;BME280;26686;50.130;8.710;2023-03-04T11:12:38;100808.94;;;7.31;51.27
40954;BME280;26686;50.130;8.710;2023-03-04T11:17:44;100835.91;;;7.22;51.46
40954;BME280;26686;50.130;8.710;2023-03-04T11:22:47;100807.41;;;7.27;51.89
40954;BME280;26686;50.130;8.710;2023-03-04T11:27:53;100809.41;;;7.38;51.57
40954;BME280;26686;50.130;8.710;2023-03-04T11:33:05;100825.09;;;7.57;51.54
40954;BME280;26686;50.130;8.710;2023-03-04T11:38:21;100829.78;;;7.05;52.60
40954;BME280;26686;50.130;8.710;2023-03-04T12:10:19;100798.66;;;7.25;52.03
40954;BME280;26686;50.130;8.710;2023-03-04T12:15:27;100787.59;;;7.49;51.73
40954;BME280;26686;50.130;8.710;2023-03-04T12:31:33;100771.22;;;7.56;50.80
40954;BME280;26686;50.130;8.710;2023-03-04T12:47:22;100735.16;;;8.40;49.20
40954;BME280;26686;50.130;8.710;2023-03-04T12:52:59;100725.59;;;8.52;48.41
40954;BME280;26686;50.130;8.710;2023-03-04T12:58:05;100722.44;;;8.87;47.87
40954;BME280;26686;50.130;8.710;2023-03-04T13:18:37;100686.78;;;8.78;47.01
40954;BME280;26686;50.130;8.710;2023-03-04T13:23:39;100646.88;;;8.38;48.09
40954;BME280;26686;50.130;8.710;2023-03-04T13:28:41;100678.41;;;8.57;47.57
40954;BME280;26686;50.130;8.710;2023-03-04T13:33:46;100677.13;;;8.63;47.49
40954;BME280;26686;50.130;8.710;2023-03-04T13:39:03;100672.50;;;8.66;47.54
40954;BME280;26686;50.130;8.710;2023-03-04T13:49:34;100675.56;;;8.60;47.93
40954;BME280;26686;50.130;8.710;2023-03-04T13:54:36;100653.13;;;8.52;48.09
40954;BME280;26686;50.130;8.710;2023-03-04T13:59:43;100662.31;;;8.73;48.26
40954;BME280;26686;50.130;8.710;2023-03-04T14:04:55;100641.38;;;8.56;47.97
40954;BME280;26686;50.130;8.710;2023-03-04T14:25:34;100625.00;;;8.49;49.21
40954;BME280;26686;50.130;8.710;2023-03-04T14:30:38;100639.34;;;8.59;49.39
40954;BME280;26686;50.130;8.710;2023-03-04T14:35:46;100633.03;;;8.47;49.97
40954;BME280;26686;50.130;8.710;2023-03-04T14:41:03;100611.94;;;8.46;50.71
40954;BME280;26686;50.130;8.710;2023-03-04T14:46:08;100610.56;;;8.53;50.48
40954;BME280;26686;50.130;8.710;2023-03-04T14:51:32;100611.94;;;8.46;50.92
40954;BME280;26686;50.130;8.710;2023-03-04T14:56:42;100608.22;;;8.48;51.18
40954;BME280;26686;50.130;8.710;2023-03-04T15:01:44;100610.25;;;8.58;51.17
40954;BME280;26686;50.130;8.710;2023-03-04T15:06:48;100607.19;;;8.64;51.36
40954;BME280;26686;50.130;8.710;2023-03-04T15:11:59;100601.56;;;8.56;51.68
40954;BME280;26686;50.130;8.710;2023-03-04T15:17:02;100600.38;;;8.47;52.22
40954;BME280;26686;50.130;8.710;2023-03-04T15:22:04;100591.59;;;8.32;52.50
40954;BME280;26686;50.130;8.710;2023-03-04T15:27:10;100599.50;;;8.46;52.84
40954;BME280;26686;50.130;8.710;2023-03-04T15:32:12;100577.91;;;8.38;52.09
40954;BME280;26686;50.130;8.710;2023-03-04T15:37:25;100575.66;;;8.32;52.58
40954;BME280;26686;50.130;8.710;2023-03-04T15:42:27;100585.13;;;8.36;52.77
40954;BME280;26686;50.130;8.710;2023-03-04T15:47:29;100569.28;;;8.22;52.93
40954;BME280;26686;50.130;8.710;2023-03-04T15:52:30;100578.72;;;8.26;53.22
40954;BME280;26686;50.130;8.710;2023-03-04T15:57:33;100589.56;;;8.36;53.45
40954;BME280;26686;50.130;8.710;2023-03-04T16:02:35;100583.25;;;8.24;53.09
40954;BME280;26686;50.130;8.710;2023-03-04T16:07:37;100590.81;;;8.30;53.39
40954;BME280;26686;50.130;8.710;2023-03-04T16:12:40;100559.28;;;8.25;53.27
40954;BME280;26686;50.130;8.710;2023-03-04T16:17:42;100573.66;;;8.36;52.82
40954;BME280;26686;50.130;8.710;2023-03-04T16:22:45;100549.56;;;8.26;53.01
40954;BME280;26686;50.130;8.710;2023-03-04T16:27:49;100579.34;;;8.44;53.31
40954;BME280;26686;50.130;8.710;2023-03-04T16:32:53;100539.25;;;8.21;53.67
40954;BME280;26686;50.130;8.710;2023-03-04T16:37:55;100549.19;;;8.18;54.05
40954;BME280;26686;50.130;8.710;2023-03-04T16:42:57;100569.59;;;8.30;54.52
40954;BME280;26686;50.130;8.710;2023-03-04T16:47:58;100566.22;;;8.28;54.62
40954;BME280;26686;50.130;8.710;2023-03-04T16:52:59;100569.78;;;8.14;54.96
40954;BME280;26686;50.130;8.710;2023-03-04T16:58:01;100571.22;;;8.05;55.40
40954;BME280;26686;50.130;8.710;2023-03-04T17:03:02;100565.91;;;8.05;55.97
40954;BME280;26686;50.130;8.710;2023-03-04T17:08:04;100560.41;;;8.08;55.75
40954;BME280;26686;50.130;8.710;2023-03-04T17:13:05;100559.31;;;7.98;56.42
40954;BME280;26686;50.130;8.710;2023-03-04T17:18:09;100574.09;;;7.88;56.86
40954;BME280;26686;50.130;8.710;2023-03-04T17:23:10;100571.34;;;7.89;57.67
40954;BME280;26686;50.130;8.710;2023-03-04T17:28:12;100582.41;;;7.96;57.92
40954;BME280;26686;50.130;8.710;2023-03-04T17:33:13;100587.06;;;7.92;58.09
40954;BME280;26686;50.130;8.710;2023-03-04T17:38:15;100593.41;;;7.90;58.82
40954;BME280;26686;50.130;8.710;2023-03-04T17:43:16;100589.41;;;7.97;58.65
40954;BME280;26686;50.130;8.710;2023-03-04T17:48:18;100569.19;;;7.82;58.78
40954;BME280;26686;50.130;8.710;2023-03-04T17:53:19;100595.38;;;8.01;58.74
40954;BME280;26686;50.130;8.710;2023-03-04T17:58:21;100586.81;;;7.83;59.53
40954;BME280;26686;50.130;8.710;2023-03-04T18:03:23;100586.59;;;7.86;60.29
40954;BME280;26686;50.130;8.710;2023-03-04T18:08:24;100584.09;;;7.97;60.00
40954;BME280;26686;50.130;8.710;2023-03-04T18:13:26;100574.09;;;7.88;60.34
40954;BME280;26686;50.130;8.710;2023-03-04T18:18:27;100555.41;;;7.76;60.54
40954;BME280;26686;50.130;8.710;2023-03-04T18:23:29;100558.44;;;7.70;60.66
40954;BME280;26686;50.130;8.710;2023-03-04T18:28:31;100564.88;;;7.66;61.10
40954;BME280;26686;50.130;8.710;2023-03-04T18:33:33;100569.38;;;7.78;61.47
40954;BME280;26686;50.130;8.710;2023-03-04T18:38:34;100577.38;;;7.64;61.79
40954;BME280;26686;50.130;8.710;2023-03-04T18:43:36;100574.34;;;7.70;61.65
40954;BME280;26686;50.130;8.710;2023-03-04T18:48:42;100572.09;;;7.64;62.31
40954;BME280;26686;50.130;8.710;2023-03-04T18:53:45;100568.25;;;7.68;62.12
40954;BME280;26686;50.130;8.710;2023-03-04T18:58:48;100555.03;;;7.68;61.45
40954;BME280;26686;50.130;8.710;2023-03-04T19:03:51;100567.47;;;7.81;61.62
40954;BME280;26686;50.130;8.710;2023-03-04T19:08:54;100551.97;;;7.74;61.59
40954;BME280;26686;50.130;8.710;2023-03-04T19:13:56;100583.75;;;7.89;61.14
40954;BME280;26686;50.130;8.710;2023-03-04T19:18:57;100563.34;;;7.76;61.64
40954;BME280;26686;50.130;8.710;2023-03-04T19:23:58;100582.25;;;7.85;61.24
40954;BME280;26686;50.130;8.710;2023-03-04T19:29:00;100581.75;;;7.92;61.26
40954;BME280;26686;50.130;8.710;2023-03-04T19:34:03;100568.16;;;7.84;61.22
40954;BME280;26686;50.130;8.710;2023-03-04T19:39:05;100593.22;;;7.93;61.00
40954;BME280;26686;50.130;8.710;2023-03-04T19:44:08;100583.47;;;7.93;61.47
40954;BME280;26686;50.130;8.710;2023-03-04T19:49:09;100583.47;;;7.93;61.11
40954;BME280;26686;50.130;8.710;2023-03-04T19:54:11;100573.44;;;7.84;61.71
40954;BME280;26686;50.130;8.710;2023-03-04T19:59:12;100571.44;;;7.88;61.83
40954;BME280;26686;50.130;8.710;2023-03-04T20:04:16;100577.91;;;7.84;62.64
40954;BME280;26686;50.130;8.710;2023-03-04T20:09:18;100570.81;;;7.84;62.15
40954;BME280;26686;50.130;8.710;2023-03-04T20:14:20;100546.66;;;7.74;62.83
40954;BME280;26686;50.130;8.710;2023-03-04T20:19:21;100564.38;;;7.88;62.65
40954;BME280;26686;50.130;8.710;2023-03-04T20:24:23;100532.16;;;7.53;62.43
40954;BME280;26686;50.130;8.710;2023-03-04T20:29:25;100572.34;;;7.74;63.72
40954;BME280;26686;50.130;8.710;2023-03-04T20:34:28;100572.72;;;7.68;63.71
40954;BME280;26686;50.130;8.710;2023-03-04T20:39:30;100570.47;;;7.61;64.50
40954;BME280;26686;50.130;8.710;2023-03-04T20:44:31;100568.38;;;7.67;64.42
40954;BME280;26686;50.130;8.710;2023-03-04T20:49:33;100566.19;;;7.59;64.89
40954;BME280;26686;50.130;8.710;2023-03-04T20:54:36;100580.56;;;7.69;64.26
40954;BME280;26686;50.130;8.710;2023-03-04T20:59:39;100576.78;;;7.73;65.05
40954;BME280;26686;50.130;8.710;2023-03-04T21:04:41;100546.13;;;7.55;64.61
40954;BME280;26686;50.130;8.710;2023-03-04T21:09:44;100582.75;;;7.77;64.67
40954;BME280;26686;50.130;8.710;2023-03-04T21:14:45;100555.41;;;7.76;64.07
40954;BME280;26686;50.130;8.710;2023-03-04T21:19:47;100567.31;;;7.84;64.50
40954;BME280;26686;50.130;8.710;2023-03-04T21:24:48;100562.94;;;7.83;64.57
40954;BME280;26686;50.130;8.710;2023-03-04T21:29:49;100541.38;;;7.74;64.09
40954;BME280;26686;50.130;8.710;2023-03-04T21:34:53;100543.47;;;7.69;65.03
40954;BME280;26686;50.130;8.710;2023-03-04T21:39:55;100555.84;;;7.83;64.73
40954;BME280;26686;50.130;8.710;2023-03-04T21:44:56;100554.06;;;7.84;64.82
40954;BME280;26686;50.130;8.710;2023-03-04T21:49:57;100554.06;;;7.84;64.05
40954;BME280;26686;50.130;8.710;2023-03-04T21:54:59;100547.16;;;7.81;64.32
40954;BME280;26686;50.130;8.710;2023-03-04T22:00:00;100546.66;;;7.74;64.49
40954;BME280;26686;50.130;8.710;2023-03-04T22:05:03;100553.97;;;7.85;64.82
40954;BME280;26686;50.130;8.710;2023-03-04T22:10:05;100499.44;;;7.54;64.77
40954;BME280;26686;50.130;8.710;2023-03-04T22:15:07;100530.97;;;7.71;64.57
40954;BME280;26686;50.130;8.710;2023-03-04T22:20:10;100518.88;;;7.67;64.70
40954;BME280;26686;50.130;8.710;2023-03-04T22:25:12;100461.25;;;7.29;64.42
40954;BME280;26686;50.130;8.710;2023-03-04T22:30:14;100526.47;;;7.59;64.35
40954;BME280;26686;50.130;8.710;2023-03-04T22:35:17;100514.63;;;7.65;64.13
40954;BME280;26686;50.130;8.710;2023-03-04T22:40:19;100522.69;;;7.63;64.60
40954;BME280;26686;50.130;8.710;2023-03-04T22:45:20;100535.44;;;7.71;64.34
40954;BME280;26686;50.130;8.710;2023-03-04T22:50:22;100513.78;;;7.64;63.94
40954;BME280;26686;50.130;8.710;2023-03-04T22:55:23;100489.78;;;7.53;63.89
40954;BME280;26686;50.130;8.710;2023-03-04T23:00:26;100524.72;;;7.72;64.26
40954;BME280;26686;50.130;8.710;2023-03-04T23:05:28;100525.47;;;7.74;63.82
40954;BME280;26686;50.130;8.710;2023-03-04T23:10:30;100529.75;;;7.77;63.47
40954;BME280;26686;50.130;8.710;2023-03-04T23:15:31;100541.88;;;7.67;63.65
40954;BME280;26686;50.130;8.710;2023-03-04T23:20:32;100518.50;;;7.59;63.29
40954;BME280;26686;50.130;8.710;2023-03-04T23:25:34;100513.78;;;7.64;63.29
40954;BME280;26686;50.130;8.710;2023-03-04T23:30:36;100522.91;;;7.73;62.63
40954;BME280;26686;50.130;8.710;2023-03-04T23:35:37;100529.63;;;7.78;62.21
40954;BME280;26686;50.130;8.710;2023-03-04T23:40:40;100516.16;;;7.69;61.51
40954;BME280;26686;50.130;8.710;2023-03-04T23:45:42;100495.06;;;7.53;61.35
40954;BME280;26686;50.130;8.710;2023-03-04T23:50:49;100503.56;;;7.58;60.95
40954;BME280;26686;50.130;8.710;2023-03-04T23:55:51;100520.38;;;7.71;60.96
